Time;durP1;ratioP1;P1;durP2;ratioP2;P2;SDS_P1;SDS_P2;PMS_P1;PMS_P2;Temp;Humidity;BMP_temperature;BMP_pressure;BME280_temperature;BME280_humidity;BME280_pressure;Samples;Min_cycle;Max_cycle;Signal;HPM_P1;HPM_P2
2023/06/06 00:00:41;;;;;;;6.80;2.60;;;;;;;14.88;56.44;100867.22;1624988;88;21072;-63
2023/06/06 00:03:10;;;;;;;5.42;2.83;;;;;;;14.87;56.45;100871.04;1627611;88;21047;-63
2023/06/06 00:05:39;;;;;;;5.03;2.62;;;;;;;14.85;56.75;100864.89;1627869;87;21436;-62
2023/06/06 00:08:08;;;;;;;5.17;2.50;;;;;;;14.85;56.73;100865.73;1626746;88;21087;-63
2023/06/06 00:10:38;;;;;;;4.05;2.58;;;;;;;14.83;56.78;100871.15;1627009;88;21103;-64
2023/06/06 00:13:07;;;;;;;6.15;2.55;;;;;;;14.81;56.59;100869.13;1598531;90;21011;-64
2023/06/06 00:15:36;;;;;;;6.08;2.83;;;;;;;14.73;56.38;100864.69;1598127;90;21599;-64
2023/06/06 00:18:06;;;;;;;8.25;2.60;;;;;;;14.64;56.50;100874.24;1572020;91;21511;-63
2023/06/06 00:20:36;;;;;;;5.95;2.77;;;;;;;14.61;56.75;100867.77;1626845;86;21047;-64
2023/06/06 00:23:07;;;;;;;6.37;2.47;;;;;;;14.59;57.14;100874.88;1597983;90;21027;-63
2023/06/06 00:25:37;;;;;;;4.80;2.50;;;;;;;14.61;57.30;100870.53;1626954;88;21492;-63
2023/06/06 00:28:06;;;;;;;6.37;2.70;;;;;;;14.61;57.45;100871.91;1627959;88;21107;-63
2023/06/06 00:30:37;;;;;;;7.35;3.17;;;;;;;14.62;57.42;100868.09;1628211;88;21095;-63
2023/06/06 00:33:06;;;;;;;4.67;2.90;;;;;;;14.64;57.36;100872.86;1599422;88;21320;-62
2023/06/06 00:35:36;;;;;;;4.40;2.60;;;;;;;14.65;57.31;100869.05;1636613;86;21525;-64
2023/06/06 00:38:05;;;;;;;6.30;2.55;;;;;;;14.66;57.30;100872.65;1639656;87;21991;-62
2023/06/06 00:40:34;;;;;;;5.30;2.75;;;;;;;14.64;57.38;100867.34;1629522;88;21016;-63
2023/06/06 00:43:03;;;;;;;4.95;2.60;;;;;;;14.61;57.49;100870.53;1645761;86;21046;-63
2023/06/06 00:45:33;;;;;;;5.87;3.10;;;;;;;14.59;57.56;100869.90;1658648;86;21054;-63
2023/06/06 00:48:04;;;;;;;5.20;2.58;;;;;;;14.58;57.76;100867.67;1628305;87;21171;-63
2023/06/06 00:50:34;;;;;;;5.80;2.60;;;;;;;14.57;57.86;100870.64;1639437;87;21140;-63
2023/06/06 00:53:03;;;;;;;5.35;2.40;;;;;;;14.55;58.03;100871.37;1658418;86;21114;-62
2023/06/06 00:55:34;;;;;;;3.80;2.70;;;;;;;14.52;58.10;100871.81;1658785;86;21047;-63
2023/06/06 00:58:03;;;;;;;5.58;2.67;;;;;;;14.51;57.99;100865.44;1658758;86;21083;-63
2023/06/06 01:00:32;;;;;;;5.92;2.55;;;;;;;14.49;57.89;100868.09;1658126;86;22073;-62
2023/06/06 01:03:09;;;;;;;7.20;3.10;;;;;;;14.45;57.83;100872.34;1627831;88;21068;-62
2023/06/06 01:05:35;;;;;;;8.00;3.45;;;;;;;14.45;57.98;100869.58;1628035;87;21065;-63
2023/06/06 01:08:07;;;;;;;9.38;3.10;;;;;;;14.41;58.13;100869.66;1658355;86;21118;-62
2023/06/06 01:10:42;;;;;;;5.67;2.95;;;;;;;14.40;58.25;100878.98;1627933;88;21075;-62
2023/06/06 01:13:35;;;;;;;5.85;2.80;;;;;;;14.38;58.43;100871.45;1636077;87;21691;-62
2023/06/06 01:16:12;;;;;;;5.95;2.77;;;;;;;14.39;58.50;100875.38;1628040;88;21468;-63
2023/06/06 01:18:45;;;;;;;5.72;2.83;;;;;;;14.36;58.74;100876.33;1656986;86;21041;-63
2023/06/06 01:21:15;;;;;;;7.12;3.37;;;;;;;14.35;58.86;100881.52;1625635;88;21478;-62
2023/06/06 01:23:45;;;;;;;4.87;3.00;;;;;;;14.32;58.87;100879.19;1639445;87;21024;-62
2023/06/06 01:26:14;;;;;;;5.87;2.80;;;;;;;14.30;58.91;100877.98;1629106;88;21059;-63
2023/06/06 01:28:43;;;;;;;7.17;2.87;;;;;;;14.27;58.76;100876.50;1630057;88;21095;-62
2023/06/06 01:31:15;;;;;;;5.22;3.08;;;;;;;14.28;58.75;100878.73;1656073;86;21954;-62
2023/06/06 01:33:52;;;;;;;7.55;2.85;;;;;;;14.27;58.87;100876.50;1627110;88;21123;-61
2023/06/06 01:36:37;;;;;;;5.70;3.02;;;;;;;14.29;59.01;100883.18;1638539;87;21068;-62
2023/06/06 01:39:15;;;;;;;9.50;3.62;;;;;;;14.32;59.04;100877.28;1628426;88;21472;-62
2023/06/06 01:41:43;;;;;;;13.58;3.52;;;;;;;14.32;58.83;100881.94;1639467;87;21111;-63
2023/06/06 01:44:12;;;;;;;7.40;3.10;;;;;;;14.27;58.69;100882.55;1628769;88;21083;-62
2023/06/06 01:46:41;;;;;;;8.30;2.77;;;;;;;14.22;58.70;100874.91;1629967;86;21139;-62
2023/06/06 01:49:12;;;;;;;7.08;2.62;;;;;;;14.22;58.77;100885.08;1627649;88;21080;-62
2023/06/06 01:51:42;;;;;;;9.88;2.55;;;;;;;14.20;58.94;100880.30;1615417;88;21507;-62
2023/06/06 01:54:11;;;;;;;4.53;2.70;;;;;;;14.21;58.95;100882.86;1631918;88;21113;-62
2023/06/06 01:56:41;;;;;;;6.08;2.55;;;;;;;14.23;58.92;100882.11;1625487;87;21520;-62
2023/06/06 01:59:10;;;;;;;8.93;2.85;;;;;;;14.23;58.77;100878.51;1639535;87;21041;-63
2023/06/06 02:01:40;;;;;;;6.30;2.77;;;;;;;14.22;58.72;100885.93;1658643;86;21478;-62
2023/06/06 02:04:09;;;;;;;4.97;2.60;;;;;;;14.22;58.55;100884.55;1628241;87;21020;-62
2023/06/06 02:06:39;;;;;;;4.28;2.60;;;;;;;14.21;58.54;100880.63;1629173;87;21111;-62
2023/06/06 02:09:10;;;;;;;10.05;4.67;;;;;;;14.19;58.67;100891.86;1629955;88;21128;-61
2023/06/06 02:11:39;;;;;;;7.85;3.42;;;;;;;14.18;58.54;100887.41;1629876;88;21190;-62
2023/06/06 02:14:09;;;;;;;10.28;3.00;;;;;;;14.16;58.57;100888.15;1629709;88;21048;-62
2023/06/06 02:16:38;;;;;;;8.50;3.27;;;;;;;14.15;58.78;100885.07;1627016;88;21098;-62
2023/06/06 02:19:07;;;;;;;6.83;3.35;;;;;;;14.12;59.06;100892.38;1631975;87;21128;-61
2023/06/06 02:21:36;;;;;;;7.53;3.52;;;;;;;14.08;59.32;100886.97;1658630;86;21058;-62
2023/06/06 02:24:06;;;;;;;7.87;3.60;;;;;;;14.04;59.57;100898.09;1658577;86;21067;-61
2023/06/06 02:26:36;;;;;;;7.50;3.77;;;;;;;14.02;59.75;100891.94;1658613;86;21046;-62
2023/06/06 02:29:06;;;;;;;11.83;4.20;;;;;;;14.05;59.82;100896.17;1588580;90;21091;-61
2023/06/06 02:31:36;;;;;;;11.48;4.47;;;;;;;14.08;59.98;100895.23;1607106;89;21078;-62
2023/06/06 02:34:05;;;;;;;10.08;4.40;;;;;;;14.07;60.23;100893.53;1606961;89;21150;-63
2023/06/06 02:36:34;;;;;;;10.78;4.25;;;;;;;14.04;60.40;100893.95;1591659;90;22164;-61
2023/06/06 02:39:04;;;;;;;10.68;4.20;;;;;;;14.07;60.37;100893.53;1561523;91;21099;-62
2023/06/06 02:41:33;;;;;;;9.75;3.75;;;;;;;14.09;60.41;100895.55;1571155;90;21688;-62
2023/06/06 02:44:04;;;;;;;8.73;4.08;;;;;;;14.07;60.57;100893.53;1591691;90;21127;-62
2023/06/06 02:46:33;;;;;;;9.33;4.33;;;;;;;14.08;60.65;100893.00;1601548;87;21115;-63
2023/06/06 02:49:02;;;;;;;10.03;4.20;;;;;;;14.09;60.69;100891.42;1639288;87;21492;-62
2023/06/06 02:51:31;;;;;;;8.30;3.90;;;;;;;14.10;60.87;100894.49;1639719;87;21064;-62
2023/06/06 02:54:00;;;;;;;8.65;3.30;;;;;;;14.14;60.53;100901.81;1639461;87;21067;-63
2023/06/06 02:56:29;;;;;;;8.23;3.72;;;;;;;14.15;60.62;100900.23;1621508;87;21080;-63
2023/06/06 02:58:58;;;;;;;9.28;3.52;;;;;;;14.15;60.67;100898.00;1603042;89;21138;-63
2023/06/06 03:01:30;;;;;;;11.10;4.35;;;;;;;14.17;60.63;100900.87;1602306;89;21059;-62
2023/06/06 03:03:58;;;;;;;27.00;6.08;;;;;;;14.24;60.32;100899.50;1641584;87;21076;-62
2023/06/06 03:06:28;;;;;;;19.82;4.50;;;;;;;14.29;60.15;100892.30;1604778;89;21079;-62
2023/06/06 03:08:58;;;;;;;11.78;4.83;;;;;;;14.37;60.14;100891.81;1642183;87;21092;-63
2023/06/06 03:11:30;;;;;;;11.80;3.95;;;;;;;14.43;60.25;100898.74;1602136;89;21048;-63
2023/06/06 03:13:58;;;;;;;14.65;4.70;;;;;;;14.46;60.30;100898.31;1640074;87;21494;-62
2023/06/06 03:16:30;;;;;;;11.38;4.42;;;;;;;14.48;60.41;100907.23;1600970;89;21051;-63
2023/06/06 03:18:59;;;;;;;19.42;5.00;;;;;;;14.46;60.43;100898.31;1597849;89;21448;-62
2023/06/06 03:21:28;;;;;;;15.93;5.22;;;;;;;14.49;60.58;100902.56;1597824;89;21060;-62
2023/06/06 03:23:57;;;;;;;15.63;5.12;;;;;;;14.52;60.61;100904.37;1637837;88;21097;-64
2023/06/06 03:26:27;;;;;;;18.30;5.60;;;;;;;14.53;60.57;100902.45;1599182;89;21060;-62
2023/06/06 03:28:58;;;;;;;16.62;5.75;;;;;;;14.56;60.43;100902.03;1640122;87;21099;-62
2023/06/06 03:31:29;;;;;;;13.68;5.15;;;;;;;14.65;60.01;100907.66;1600077;88;21100;-62
2023/06/06 03:33:58;;;;;;;23.77;7.45;;;;;;;14.76;59.64;100903.41;1640008;87;21080;-62
2023/06/06 03:36:32;;;;;;;12.37;5.28;;;;;;;14.85;59.51;100900.22;1639648;86;21083;-62
2023/06/06 03:39:00;;;;;;;13.45;5.62;;;;;;;14.97;59.68;100899.61;1602969;89;21059;-62
2023/06/06 03:41:33;;;;;;;14.80;6.10;;;;;;;15.04;59.55;100903.20;1639572;87;21550;-62
2023/06/06 03:44:02;;;;;;;12.70;5.80;;;;;;;15.11;59.23;100900.75;1639656;87;21012;-62
2023/06/06 03:46:31;;;;;;;10.40;4.80;;;;;;;15.21;59.06;100899.77;1639851;87;21095;-62
2023/06/06 03:49:00;;;;;;;12.43;5.00;;;;;;;15.33;58.42;100903.25;1602680;88;21087;-61
2023/06/06 03:51:29;;;;;;;13.75;5.05;;;;;;;15.43;58.23;100900.88;1637463;87;21512;-62
2023/06/06 03:54:01;;;;;;;11.22;5.17;;;;;;;15.52;57.93;100907.33;1598051;89;21087;-62
2023/06/06 03:56:30;;;;;;;9.45;4.83;;;;;;;15.65;57.74;100900.96;1638748;87;21500;-62
2023/06/06 03:58:58;;;;;;;14.10;4.75;;;;;;;15.78;57.48;100894.53;1639726;87;21028;-62
2023/06/06 04:01:31;;;;;;;8.85;4.75;;;;;;;15.89;57.23;100899.36;1599347;88;21060;-62
2023/06/06 04:03:58;;;;;;;11.25;5.12;;;;;;;16.00;56.99;100905.58;1598401;89;21340;-63
2023/06/06 04:06:27;;;;;;;9.68;4.78;;;;;;;16.12;56.84;100905.19;1599596;89;21516;-62
2023/06/06 04:08:56;;;;;;;11.45;4.75;;;;;;;16.22;56.54;100899.70;1600662;89;21503;-62
2023/06/06 04:11:27;;;;;;;14.75;5.58;;;;;;;16.34;56.23;100897.95;1601672;89;21520;-62
2023/06/06 04:13:56;;;;;;;11.75;5.10;;;;;;;16.43;55.86;100900.22;1639904;87;21024;-61
2023/06/06 04:16:25;;;;;;;11.50;4.72;;;;;;;16.52;55.39;100893.88;1639685;87;21554;-62
2023/06/06 04:18:54;;;;;;;11.75;4.85;;;;;;;16.62;54.91;100905.29;1639802;87;21057;-62
2023/06/06 04:21:23;;;;;;;11.70;4.65;;;;;;;16.71;54.44;100902.58;1599203;89;21518;-62
2023/06/06 04:23:53;;;;;;;13.50;4.97;;;;;;;16.80;54.50;100895.69;1639587;87;21052;-63
2023/06/06 04:26:31;;;;;;;14.33;5.78;;;;;;;16.91;54.09;100902.44;1639587;87;21081;-62
2023/06/06 04:28:59;;;;;;;13.55;5.05;;;;;;;17.00;53.43;100894.69;1639575;87;21307;-63
2023/06/06 04:31:29;;;;;;;14.95;5.37;;;;;;;17.09;53.21;100891.94;1642795;87;21046;-62
2023/06/06 04:34:01;;;;;;;13.93;5.40;;;;;;;17.18;53.27;100896.10;1639480;87;21068;-64
2023/06/06 04:36:33;;;;;;;16.85;6.40;;;;;;;17.29;53.33;100893.95;1656182;85;21095;-63
2023/06/06 04:39:01;;;;;;;15.25;5.85;;;;;;;17.40;53.33;100894.58;1658700;86;21051;-63
2023/06/06 04:41:31;;;;;;;18.55;6.30;;;;;;;17.49;53.04;100886.80;1658528;86;21487;-64
2023/06/06 04:44:03;;;;;;;15.13;6.30;;;;;;;17.59;52.92;100890.45;1658569;86;21047;-62
2023/06/06 04:46:33;;;;;;;18.05;5.97;;;;;;;17.67;52.72;100886.85;1636237;87;21500;-61
2023/06/06 04:49:02;;;;;;;14.78;6.58;;;;;;;17.76;52.50;100883.22;1658003;86;21063;-65
2023/06/06 04:51:33;;;;;;;12.45;5.42;;;;;;;17.82;52.35;100885.06;1658392;86;21186;-62
2023/06/06 04:54:05;;;;;;;12.43;5.62;;;;;;;17.90;52.08;100888.89;1626803;86;21044;-62
2023/06/06 04:56:34;;;;;;;20.62;6.12;;;;;;;17.96;51.98;100887.95;1626498;88;21115;-63
2023/06/06 04:59:06;;;;;;;18.12;6.05;;;;;;;18.04;52.09;100893.72;1639706;87;21087;-63
2023/06/06 05:01:37;;;;;;;15.03;5.37;;;;;;;18.09;52.36;100892.47;1639411;86;21045;-62
2023/06/06 05:04:07;;;;;;;18.77;6.30;;;;;;;18.15;52.69;100890.69;1658783;86;21123;-64
2023/06/06 05:06:37;;;;;;;18.65;6.42;;;;;;;18.27;52.52;100886.90;1658559;86;21055;-63
2023/06/06 05:09:07;;;;;;;11.28;4.12;;;;;;;18.48;50.82;100889.67;1658539;86;21082;-63
2023/06/06 05:11:36;;;;;;;10.98;4.40;;;;;;;18.81;49.02;100884.98;1658614;86;21514;-62
2023/06/06 05:14:05;;;;;;;18.82;5.67;;;;;;;19.20;47.07;100885.38;1625415;88;21088;-63
2023/06/06 05:16:34;;;;;;;11.33;5.00;;;;;;;19.61;46.41;100878.84;1639437;87;21538;-62
2023/06/06 05:19:03;;;;;;;13.78;4.87;;;;;;;20.02;46.24;100883.84;1639670;86;21497;-64
2023/06/06 05:21:33;;;;;;;16.12;5.25;;;;;;;20.43;43.80;100882.72;1639757;87;21076;-63
2023/06/06 05:24:03;;;;;;;12.35;3.98;;;;;;;20.83;42.77;100890.41;1624401;88;21535;-62
2023/06/06 05:26:32;;;;;;;8.50;3.30;;;;;;;21.27;41.36;100885.53;1625122;88;21043;-62
2023/06/06 05:29:00;;;;;;;9.03;3.42;;;;;;;21.68;39.96;100882.23;1658306;86;21063;-62
2023/06/06 05:31:29;;;;;;;10.58;3.52;;;;;;;22.05;38.30;100884.37;1626099;88;21208;-63
2023/06/06 05:33:58;;;;;;;4.55;2.75;;;;;;;22.33;37.70;100879.96;1624604;88;21043;-63
2023/06/06 05:36:27;;;;;;;8.43;3.02;;;;;;;22.61;37.32;100887.77;1629931;87;21571;-63
2023/06/06 05:38:56;;;;;;;10.93;3.40;;;;;;;22.82;36.66;100881.30;1595698;90;21067;-62
2023/06/06 05:41:25;;;;;;;10.03;3.87;;;;;;;22.94;36.70;100883.91;1642078;86;21107;-64
2023/06/06 05:43:53;;;;;;;11.28;3.67;;;;;;;23.04;36.28;100879.78;1658540;86;21268;-63
2023/06/06 05:46:22;;;;;;;10.88;4.28;;;;;;;23.14;36.47;100876.22;1658623;86;21584;-63
2023/06/06 05:48:51;;;;;;;17.27;4.45;;;;;;;23.27;35.95;100877.14;1627620;87;21099;-63
2023/06/06 05:51:21;;;;;;;16.42;4.45;;;;;;;23.36;35.35;100873.56;1632696;87;21044;-64
2023/06/06 05:53:50;;;;;;;15.63;4.65;;;;;;;23.58;35.26;100872.06;1628604;88;21056;-62
2023/06/06 05:56:21;;;;;;;9.38;3.87;;;;;;;23.95;35.08;100875.28;1624381;86;21084;-63
2023/06/06 05:58:52;;;;;;;12.33;3.92;;;;;;;24.31;34.02;100877.11;1603919;87;21589;-64
2023/06/06 06:01:24;;;;;;;10.18;3.30;;;;;;;24.62;33.58;100880.78;1627571;88;21522;-62
2023/06/06 06:03:52;;;;;;;11.43;3.65;;;;;;;24.85;32.82;100878.58;1617712;88;21079;-64
2023/06/06 06:06:23;;;;;;;25.57;4.97;;;;;;;24.87;32.32;100871.56;1652557;86;21133;-63
2023/06/06 06:08:52;;;;;;;13.83;4.00;;;;;;;24.79;32.66;100874.09;1658830;86;21079;-64
2023/06/06 06:11:21;;;;;;;12.85;5.10;;;;;;;24.82;32.65;100877.17;1658693;86;21004;-63
2023/06/06 06:13:50;;;;;;;10.10;3.83;;;;;;;24.94;32.50;100879.12;1658638;86;21054;-65
2023/06/06 06:16:18;;;;;;;12.23;3.92;;;;;;;25.13;32.22;100882.22;1628303;87;21487;-64
2023/06/06 06:18:47;;;;;;;20.15;4.78;;;;;;;25.25;31.50;100875.75;1600872;87;21067;-64
2023/06/06 06:21:16;;;;;;;9.20;3.87;;;;;;;25.40;31.35;100880.52;1658488;86;21094;-63
2023/06/06 06:23:49;;;;;;;6.37;2.87;;;;;;;25.66;31.51;100879.05;1628097;88;21170;-63
2023/06/06 06:26:18;;;;;;;16.30;4.42;;;;;;;25.91;30.30;100869.11;1639275;87;21052;-64
2023/06/06 06:28:50;;;;;;;6.85;2.70;;;;;;;26.19;29.82;100877.41;1629282;88;21075;-63
2023/06/06 06:31:18;;;;;;;6.28;2.37;;;;;;;26.52;28.89;100873.01;1596149;90;21558;-63
2023/06/06 06:33:47;;;;;;;5.78;3.17;;;;;;;26.76;27.59;100873.97;1626113;87;21076;-63
2023/06/06 06:36:15;;;;;;;7.05;2.83;;;;;;;26.99;27.32;100870.14;1600639;88;21082;-63
2023/06/06 06:38:44;;;;;;;4.47;2.52;;;;;;;27.21;26.70;100873.30;1628428;88;21470;-66
2023/06/06 06:41:13;;;;;;;12.65;3.33;;;;;;;27.42;26.16;100866.33;1652138;86;21495;-64
2023/06/06 06:43:43;;;;;;;8.35;2.50;;;;;;;27.59;25.77;100865.02;1625599;88;21549;-64
2023/06/06 06:46:14;;;;;;;5.33;2.27;;;;;;;27.76;25.81;100865.39;1625216;88;21068;-64
2023/06/06 06:48:45;;;;;;;9.15;3.08;;;;;;;27.92;25.38;100864.63;1648954;86;21119;-65
2023/06/06 06:51:16;;;;;;;6.40;2.25;;;;;;;28.07;24.80;100869.50;1621491;88;21072;-63
2023/06/06 06:53:45;;;;;;;7.40;3.40;;;;;;;28.20;24.74;100867.08;1605738;88;21086;-62
2023/06/06 06:56:16;;;;;;;7.33;3.00;;;;;;;28.41;24.12;100864.25;1604598;89;21134;-63
2023/06/06 06:58:44;;;;;;;9.75;4.80;;;;;;;28.68;23.49;100860.16;1604686;88;21070;-64
2023/06/06 07:01:27;;;;;;;6.35;2.47;;;;;;;28.85;23.09;100865.84;1624206;88;21534;-64
2023/06/06 07:03:48;;;;;;;5.33;2.45;;;;;;;28.88;22.87;100860.42;1625840;87;21076;-64
2023/06/06 07:06:18;;;;;;;6.15;2.30;;;;;;;28.89;22.91;100862.67;1644199;86;21557;-63
2023/06/06 07:08:49;;;;;;;5.65;3.30;;;;;;;29.01;22.96;100865.83;1624447;88;21137;-64
2023/06/06 07:11:17;;;;;;;10.32;3.05;;;;;;;29.26;22.43;100856.92;1660060;86;21092;-64
2023/06/06 07:13:46;;;;;;;8.45;2.70;;;;;;;29.48;21.65;100863.30;1617299;87;21157;-64
2023/06/06 07:16:15;;;;;;;3.95;2.10;;;;;;;29.68;21.62;100866.85;1586705;90;21062;-63
2023/06/06 07:18:47;;;;;;;7.03;2.80;;;;;;;29.81;21.11;100860.36;1597731;88;21130;-65
2023/06/06 07:21:15;;;;;;;10.03;2.92;;;;;;;29.71;20.99;100860.00;1636334;87;21495;-65
2023/06/06 07:23:45;;;;;;;3.90;1.90;;;;;;;29.68;20.48;100860.63;1650158;87;21106;-63
2023/06/06 07:26:20;;;;;;;2.98;1.75;;;;;;;29.69;20.45;100858.06;1621813;88;21056;-63
2023/06/06 07:28:46;;;;;;;5.60;2.12;;;;;;;29.78;20.47;100856.17;1625571;87;21160;-63
2023/06/06 07:31:16;;;;;;;5.00;2.35;;;;;;;29.85;20.84;100856.59;1659784;86;21098;-65
2023/06/06 07:33:45;;;;;;;74.55;7.72;;;;;;;30.06;20.52;100857.61;1609842;88;21075;-65
2023/06/06 07:36:14;;;;;;;15.50;4.17;;;;;;;30.25;20.38;100852.64;1646918;86;21570;-64
2023/06/06 07:38:43;;;;;;;32.45;5.97;;;;;;;30.33;20.14;100849.05;1639872;87;21119;-64
2023/06/06 07:41:13;;;;;;;30.85;5.37;;;;;;;30.33;20.21;100850.47;1639589;87;21048;-64
2023/06/06 07:43:43;;;;;;;7.67;3.00;;;;;;;30.37;20.17;100853.48;1639497;87;21044;-64
2023/06/06 07:46:12;;;;;;;6.45;2.60;;;;;;;30.53;20.12;100844.31;1598235;89;21095;-63
2023/06/06 07:48:42;;;;;;;4.05;2.15;;;;;;;30.70;19.82;100841.42;1638224;87;21121;-65
2023/06/06 07:51:11;;;;;;;8.65;2.52;;;;;;;30.88;19.34;100844.63;1639529;87;21536;-64
2023/06/06 07:53:41;;;;;;;5.28;1.95;;;;;;;31.01;19.15;100842.28;1640083;87;21184;-65
2023/06/06 07:56:13;;;;;;;4.92;2.00;;;;;;;30.91;19.38;100841.14;1656492;87;21038;-62
2023/06/06 07:58:42;;;;;;;8.05;2.30;;;;;;;30.69;19.06;100842.58;1655606;86;21095;-65
2023/06/06 08:01:11;;;;;;;8.90;3.37;;;;;;;30.22;19.95;100849.03;1601763;88;21515;-64
2023/06/06 08:03:40;;;;;;;4.67;2.35;;;;;;;29.82;20.56;100851.56;1637760;87;21495;-64
2023/06/06 08:06:09;;;;;;;5.85;2.47;;;;;;;29.51;21.23;100859.02;1633324;86;21027;-63
2023/06/06 08:08:38;;;;;;;6.97;3.02;;;;;;;29.30;21.18;100853.73;1636125;87;21068;-64
2023/06/06 08:11:08;;;;;;;5.60;2.37;;;;;;;29.25;21.44;100856.63;1638432;87;21052;-63
2023/06/06 08:13:37;;;;;;;6.08;2.05;;;;;;;29.22;21.47;100855.00;1639333;87;21060;-64
2023/06/06 08:16:06;;;;;;;6.75;2.47;;;;;;;29.16;20.87;100850.03;1636626;87;21056;-63
2023/06/06 08:18:36;;;;;;;6.15;2.50;;;;;;;28.98;20.86;100850.94;1628318;86;21096;-63
2023/06/06 08:21:07;;;;;;;4.80;2.45;;;;;;;28.71;21.33;100850.25;1639429;87;21048;-63
2023/06/06 08:23:36;;;;;;;5.10;2.40;;;;;;;28.39;21.76;100848.21;1602654;89;21116;-64
2023/06/06 08:26:05;;;;;;;5.92;2.20;;;;;;;28.18;21.90;100855.27;1637675;88;21070;-62
2023/06/06 08:28:35;;;;;;;8.03;2.65;;;;;;;27.98;22.38;100850.20;1637389;88;21472;-62
2023/06/06 08:31:04;;;;;;;14.13;3.70;;;;;;;27.83;22.21;100847.56;1638751;87;21087;-64
2023/06/06 08:33:32;;;;;;;6.70;3.02;;;;;;;27.71;22.99;100847.16;1600052;89;21064;-64
2023/06/06 08:36:02;;;;;;;4.67;2.72;;;;;;;27.81;23.01;100847.02;1654541;85;21043;-65
2023/06/06 08:38:32;;;;;;;4.97;2.50;;;;;;;28.14;22.87;100847.16;1680897;85;21054;-63
2023/06/06 08:41:01;;;;;;;4.83;2.20;;;;;;;28.51;22.33;100842.94;1647662;85;21102;-65
2023/06/06 08:43:36;;;;;;;8.90;2.40;;;;;;;28.65;22.05;100834.56;1625898;88;21577;-63
2023/06/06 08:46:01;;;;;;;3.00;1.75;;;;;;;28.71;21.50;100838.40;1652458;86;21652;-64
2023/06/06 08:48:30;;;;;;;4.17;2.10;;;;;;;28.69;21.43;100840.69;1624373;88;21079;-63
2023/06/06 08:51:00;;;;;;;4.47;1.90;;;;;;;28.77;21.43;100828.44;1646853;87;21091;-64
2023/06/06 08:53:29;;;;;;;4.40;1.87;;;;;;;28.85;21.50;100837.63;1624629;88;21500;-62
2023/06/06 08:56:00;;;;;;;3.98;1.70;;;;;;;28.94;21.22;100828.72;1647450;87;21067;-65
2023/06/06 08:58:30;;;;;;;16.95;14.05;;;;;;;28.92;21.05;100827.62;1624718;88;21100;-64
2023/06/06 09:00:59;;;;;;;19.62;14.07;;;;;;;28.70;21.24;100831.08;1688495;85;21458;-65
2023/06/06 09:03:31;;;;;;;6.05;3.85;;;;;;;28.39;21.46;100829.31;1688156;85;21101;-64
2023/06/06 09:06:01;;;;;;;7.10;2.47;;;;;;;28.12;21.55;100826.91;1653132;85;21456;-64
2023/06/06 09:08:31;;;;;;;11.30;2.77;;;;;;;27.88;22.08;100829.75;1635542;87;21629;-64
2023/06/06 09:11:00;;;;;;;11.05;3.98;;;;;;;27.67;22.77;100832.00;1652170;86;21043;-64
2023/06/06 09:13:29;;;;;;;9.35;3.52;;;;;;;27.56;22.61;100827.61;1639591;87;21044;-66
2023/06/06 09:16:00;;;;;;;6.58;2.00;;;;;;;27.56;22.86;100828.45;1675505;85;21129;-64
2023/06/06 09:18:28;;;;;;;8.33;2.98;;;;;;;27.67;22.41;100822.15;1690331;85;21078;-64
2023/06/06 09:20:58;;;;;;;4.58;2.22;;;;;;;27.72;22.44;100824.89;1687090;85;21095;-63
2023/06/06 09:23:33;;;;;;;6.08;2.60;;;;;;;27.68;22.56;100811.98;1683950;85;21032;-64
2023/06/06 09:26:03;;;;;;;5.92;3.02;;;;;;;27.73;22.53;100818.12;1683464;85;21039;-64
2023/06/06 09:28:39;;;;;;;6.67;2.20;;;;;;;27.72;22.32;100812.22;1683491;84;21099;-63
2023/06/06 09:31:25;;;;;;;5.00;2.67;;;;;;;27.77;22.09;100816.37;1684158;85;21043;-64
2023/06/06 09:33:55;;;;;;;6.00;2.50;;;;;;;27.78;22.64;100809.61;1684919;85;21072;-64
2023/06/06 09:36:28;;;;;;;3.60;2.30;;;;;;;27.78;22.64;100809.61;1683074;84;21083;-64
2023/06/06 09:39:05;;;;;;;16.07;6.67;;;;;;;28.01;22.03;100800.86;1693792;85;21516;-64
2023/06/06 09:41:42;;;;;;;5.58;3.00;;;;;;;28.01;22.03;100800.86;1694572;83;20995;-63
2023/06/06 09:44:19;;;;;;;4.17;2.15;;;;;;;28.06;21.86;100800.21;1694740;85;21047;-62
2023/06/06 09:47:00;;;;;;;4.87;2.10;;;;;;;28.04;21.77;100801.09;1694801;85;21004;-63
2023/06/06 09:49:34;;;;;;;4.55;2.05;;;;;;;27.98;21.72;100803.71;1692217;83;21434;-64
2023/06/06 09:52:05;;;;;;;7.42;3.10;;;;;;;27.84;22.00;100801.35;1694332;85;21478;-65
2023/06/06 09:54:34;;;;;;;10.13;3.05;;;;;;;27.73;22.35;100796.44;1694980;85;21046;-65
2023/06/06 09:57:15;;;;;;;3.10;2.20;;;;;;;27.79;22.41;100801.42;1694961;85;21051;-63
2023/06/06 09:59:39;;;;;;;7.40;2.98;;;;;;;27.87;22.17;100799.34;1697288;84;21051;-63
2023/06/06 10:02:09;;;;;;;5.75;2.75;;;;;;;27.92;21.66;100796.45;1697836;85;21063;-62
2023/06/06 10:04:40;;;;;;;4.00;2.00;;;;;;;27.88;21.37;100791.16;1698010;85;21304;-63
2023/06/06 10:07:09;;;;;;;9.40;3.08;;;;;;;27.81;21.47;100787.04;1690894;85;21026;-62
2023/06/06 10:09:38;;;;;;;29.15;3.77;;;;;;;27.81;21.50;100787.88;1631916;87;21051;-63
2023/06/06 10:12:09;;;;;;;5.00;2.50;;;;;;;27.83;21.91;100790.39;1633059;87;21092;-63
2023/06/06 10:14:38;;;;;;;3.77;2.05;;;;;;;27.84;21.61;100785.02;1644993;87;21495;-62
2023/06/06 10:17:08;;;;;;;5.72;2.42;;;;;;;27.81;21.86;100788.45;1643923;86;21119;-62
2023/06/06 10:19:37;;;;;;;15.85;3.00;;;;;;;27.82;22.28;100786.73;1655287;87;21079;-64
2023/06/06 10:22:06;;;;;;;6.42;2.70;;;;;;;27.99;22.12;100784.26;1661695;85;21031;-62
2023/06/06 10:24:37;;;;;;;9.40;2.50;;;;;;;28.15;21.55;100781.20;1662981;85;21090;-63
2023/06/06 10:27:16;;;;;;;14.07;3.35;;;;;;;28.15;21.27;100772.18;1662005;86;21089;-62
2023/06/06 10:30:06;;;;;;;18.85;3.75;;;;;;;28.03;21.30;100779.69;1656275;86;21091;-62
2023/06/06 10:32:56;;;;;;;3.87;2.17;;;;;;;27.91;21.75;100765.77;1626300;87;21099;-62
2023/06/06 10:35:26;;;;;;;5.72;2.87;;;;;;;27.91;21.75;100765.77;1625062;87;21542;-62
2023/06/06 10:38:04;;;;;;;3.58;2.00;;;;;;;27.91;22.01;100768.02;1636192;86;21137;-63
2023/06/06 10:40:49;;;;;;;3.30;2.12;;;;;;;27.92;21.86;100771.09;1666834;85;21501;-61
2023/06/06 10:43:45;;;;;;;28.12;3.08;;;;;;;27.85;22.00;100781.91;1666870;85;21092;-60
2023/06/06 10:46:14;;;;;;;4.25;2.12;;;;;;;27.73;22.19;100789.96;1653715;86;21483;-63
2023/06/06 10:48:56;;;;;;;6.28;2.25;;;;;;;27.60;22.12;100783.64;1666794;85;21193;-62
2023/06/06 10:51:36;;;;;;;5.83;2.35;;;;;;;27.47;22.45;100775.36;1664025;86;21111;-61
2023/06/06 10:54:20;;;;;;;4.72;2.50;;;;;;;27.42;22.68;100775.42;1633457;87;21119;-63
2023/06/06 10:56:54;;;;;;;3.83;2.52;;;;;;;27.37;22.61;100779.72;1633766;88;21131;-62
2023/06/06 10:59:31;;;;;;;5.67;2.98;;;;;;;27.34;23.34;100774.11;1633652;87;21487;-63
2023/06/06 11:02:02;;;;;;;5.15;2.55;;;;;;;27.29;23.09;100777.53;1663844;86;21086;-63
2023/06/06 11:04:34;;;;;;;5.22;2.10;;;;;;;27.28;23.05;100776.70;1652691;85;21055;-63
2023/06/06 11:07:15;;;;;;;6.90;2.72;;;;;;;27.31;23.33;100772.44;1633307;85;21090;-63
2023/06/06 11:09:48;;;;;;;9.60;2.98;;;;;;;27.32;22.93;100776.39;1681487;85;21175;-63
2023/06/06 11:12:20;;;;;;;5.58;2.77;;;;;;;27.26;23.25;100767.71;1680586;85;21099;-62
2023/06/06 11:15:01;;;;;;;5.90;2.62;;;;;;;27.29;23.54;100767.68;1690091;85;21034;-61
2023/06/06 11:17:46;;;;;;;6.97;2.30;;;;;;;27.25;23.25;100765.20;1689931;85;21521;-60
2023/06/06 11:20:21;;;;;;;5.35;2.60;;;;;;;27.15;23.13;100766.16;1690160;85;21094;-60
2023/06/06 11:23:01;;;;;;;6.65;3.62;;;;;;;27.03;23.15;100765.74;1690472;85;21055;-61
2023/06/06 11:25:31;;;;;;;5.97;2.65;;;;;;;26.96;23.37;100765.23;1690712;85;21020;-62
2023/06/06 11:28:00;;;;;;;5.20;2.80;;;;;;;26.86;23.14;100760.55;1690295;84;21062;-60
2023/06/06 11:30:33;;;;;;;6.33;3.37;;;;;;;26.82;23.49;100763.13;1690239;85;21035;-62
2023/06/06 11:33:09;;;;;;;5.10;2.40;;;;;;;26.87;23.72;100752.38;1690433;85;21040;-60
2023/06/06 11:35:42;;;;;;;5.33;2.27;;;;;;;26.93;23.56;100754.58;1690257;85;21062;-62
2023/06/06 11:38:10;;;;;;;6.72;2.65;;;;;;;26.92;23.56;100747.27;1670155;84;21078;-61